createdAt,value
2018-09-20T00:00:39.633Z,91.60
2018-09-20T00:03:09.692Z,91.10
2018-09-20T00:05:42.493Z,91.30
2018-09-20T00:08:12.267Z,91.40
2018-09-20T00:10:41.436Z,91.50
2018-09-20T00:13:10.622Z,91.40
2018-09-20T00:15:39.802Z,91.80
2018-09-20T00:18:09.418Z,92.00
2018-09-20T00:20:38.937Z,92.00
2018-09-20T00:23:08.158Z,92.30
2018-09-20T00:25:38.134Z,92.60
2018-09-20T00:28:08.231Z,92.20
2018-09-20T00:30:40.274Z,92.60
2018-09-20T00:33:09.132Z,92.40
2018-09-20T00:35:39.929Z,92.30
2018-09-20T00:38:10.247Z,92.30
2018-09-20T00:40:39.378Z,92.60
2018-09-20T00:43:11.101Z,93.20
2018-09-20T00:45:42.541Z,93.00
2018-09-20T00:48:11.667Z,93.30
2018-09-20T00:50:40.741Z,93.00
2018-09-20T00:53:09.904Z,92.70
2018-09-20T00:55:39.740Z,93.70
2018-09-20T00:58:08.878Z,93.70
2018-09-20T01:00:37.812Z,93.80
2018-09-20T01:03:06.937Z,94.00
2018-09-20T01:05:36.120Z,94.00
2018-09-20T01:08:07.657Z,94.30
2018-09-20T01:10:36.766Z,93.90
2018-09-20T01:13:06.765Z,94.20
2018-09-20T01:15:37.598Z,94.20
2018-09-20T01:18:10.982Z,94.30
2018-09-20T01:20:40.707Z,94.70
2018-09-20T01:23:09.800Z,94.60
2018-09-20T01:25:38.893Z,94.40
2018-09-20T01:28:08.323Z,94.60
2018-09-20T01:30:37.391Z,94.90
2018-09-20T01:33:06.507Z,95.10
2018-09-20T01:35:35.447Z,94.90
2018-09-20T01:38:04.287Z,95.20
2018-09-20T01:40:33.527Z,95.60
2018-09-20T01:43:02.872Z,95.70
2018-09-20T01:45:33.166Z,95.60
2018-09-20T01:48:02.504Z,95.70
2018-09-20T01:50:33.981Z,95.70
2018-09-20T01:53:03.123Z,95.20
2018-09-20T01:55:32.201Z,95.80
2018-09-20T01:58:01.282Z,95.50
2018-09-20T02:00:31.741Z,96.00
2018-09-20T02:03:00.900Z,96.20
2018-09-20T02:05:29.937Z,96.10
2018-09-20T02:08:21.396Z,96.30
2018-09-20T02:10:51.855Z,95.90
2018-09-20T02:13:21.057Z,96.30
2018-09-20T02:15:50.661Z,96.20
2018-09-20T02:18:19.957Z,96.00
2018-09-20T02:20:49.008Z,96.60
2018-09-20T02:23:18.163Z,96.60
2018-09-20T02:25:47.220Z,96.30
2018-09-20T02:28:16.343Z,96.90
2018-09-20T02:30:45.471Z,97.00
2018-09-20T02:33:15.062Z,96.90
2018-09-20T02:35:43.995Z,97.10
2018-09-20T02:38:13.352Z,96.60
2018-09-20T02:40:42.288Z,96.90
2018-09-20T02:43:11.136Z,96.90
2018-09-20T02:45:49.161Z,97.10
2018-09-20T02:48:18.052Z,97.50
2018-09-20T02:50:46.979Z,97.00
2018-09-20T02:53:16.054Z,97.50
2018-09-20T02:55:56.816Z,97.70
2018-09-20T02:58:26.228Z,97.70
2018-09-20T03:00:55.050Z,97.50
2018-09-20T03:03:24.028Z,97.90
2018-09-20T03:05:55.101Z,97.90
2018-09-20T03:08:24.880Z,97.80
2018-09-20T03:10:54.038Z,97.90
2018-09-20T03:13:23.586Z,97.90
2018-09-20T03:15:52.984Z,98.10
2018-09-20T03:18:21.952Z,98.00
2018-09-20T03:20:53.432Z,98.60
2018-09-20T03:23:22.641Z,98.40
2018-09-20T03:25:53.268Z,97.50
2018-09-20T03:28:22.366Z,98.40
2018-09-20T03:30:53.140Z,98.50
2018-09-20T03:33:21.892Z,97.90
2018-09-20T03:35:50.754Z,97.80
2018-09-20T03:38:20.379Z,98.10
2018-09-20T03:40:49.168Z,98.20
2018-09-20T03:43:19.215Z,98.40
2018-09-20T03:45:48.398Z,98.50
2018-09-20T03:48:18.319Z,98.60
2018-09-20T03:50:47.378Z,98.70
2018-09-20T03:53:16.149Z,98.60
2018-09-20T03:55:44.913Z,98.60
2018-09-20T03:58:13.875Z,98.50
2018-09-20T04:00:42.954Z,98.60
2018-09-20T04:03:14.422Z,98.80
2018-09-20T04:05:43.262Z,99.30
2018-09-20T04:08:12.144Z,98.60
2018-09-20T04:10:41.289Z,98.70
2018-09-20T04:13:13.481Z,99.40
2018-09-20T04:15:45.181Z,99.90
2018-09-20T04:18:14.686Z,98.90
2018-09-20T04:20:44.235Z,99.90
2018-09-20T04:23:13.782Z,99.90
2018-09-20T04:25:42.692Z,99.90
2018-09-20T04:28:19.129Z,99.60
2018-09-20T04:30:48.389Z,98.90
2018-09-20T04:33:18.547Z,99.90
2018-09-20T04:35:47.786Z,99.70
2018-09-20T04:38:23.504Z,98.80
2018-09-20T04:40:52.913Z,99.30
2018-09-20T04:43:21.875Z,99.90
2018-09-20T04:45:50.698Z,99.90
2018-09-20T04:48:21.096Z,99.90
2018-09-20T04:50:50.848Z,99.90
2018-09-20T04:53:20.092Z,99.90
2018-09-20T04:55:49.585Z,99.90
2018-09-20T04:58:18.413Z,99.90
2018-09-20T05:00:47.590Z,99.90
2018-09-20T05:03:20.355Z,99.90
2018-09-20T05:05:49.589Z,99.90
2018-09-20T05:08:18.882Z,99.90
2018-09-20T05:10:49.422Z,99.90
2018-09-20T05:13:18.411Z,99.90
2018-09-20T05:15:48.846Z,99.90
2018-09-20T05:18:19.575Z,99.90
2018-09-20T05:20:49.628Z,99.90
2018-09-20T05:23:19.552Z,99.90
2018-09-20T05:25:49.738Z,99.90
2018-09-20T05:28:18.537Z,99.90
2018-09-20T05:30:47.665Z,99.90
2018-09-20T05:33:16.512Z,99.90
2018-09-20T05:35:46.205Z,99.90
2018-09-20T05:38:16.195Z,99.90
2018-09-20T05:40:45.765Z,99.90
2018-09-20T05:43:15.348Z,99.90
2018-09-20T05:45:44.457Z,99.90
2018-09-20T05:48:13.560Z,99.90
2018-09-20T05:50:42.945Z,99.90
2018-09-20T05:53:12.020Z,99.90
2018-09-20T05:55:41.419Z,99.90
2018-09-20T05:58:10.513Z,99.90
2018-09-20T06:00:40.122Z,99.90
2018-09-20T06:03:09.272Z,99.90
2018-09-20T06:05:38.103Z,99.90
2018-09-20T06:08:06.941Z,99.90
2018-09-20T06:10:48.636Z,99.90
2018-09-20T06:13:17.878Z,99.90
2018-09-20T06:15:47.144Z,99.90
2018-09-20T06:18:16.451Z,99.90
2018-09-20T06:20:49.480Z,99.90
2018-09-20T06:23:18.438Z,99.90
2018-09-20T06:25:48.259Z,99.90
2018-09-20T06:28:18.836Z,99.90
2018-09-20T06:30:48.236Z,99.90
2018-09-20T06:33:19.212Z,99.90
2018-09-20T06:35:49.407Z,99.90
2018-09-20T06:38:19.247Z,99.90
2018-09-20T06:40:48.520Z,99.90
2018-09-20T06:43:19.688Z,99.70
2018-09-20T06:45:49.486Z,99.40
2018-09-20T06:48:18.585Z,99.10
2018-09-20T06:50:49.530Z,98.60
2018-09-20T06:53:18.620Z,98.10
2018-09-20T06:55:47.776Z,97.80
2018-09-20T06:58:17.989Z,97.00
2018-09-20T07:00:47.125Z,96.70
2018-09-20T07:03:17.808Z,96.20
2018-09-20T07:05:46.985Z,95.60
2018-09-20T07:08:16.006Z,95.30
2018-09-20T07:10:45.066Z,94.60
2018-09-20T07:13:24.096Z,93.90
2018-09-20T07:15:52.945Z,93.30
2018-09-20T07:18:21.754Z,92.80
2018-09-20T07:20:51.062Z,92.60
2018-09-20T07:23:20.304Z,92.90
2018-09-20T07:25:51.329Z,93.00
2018-09-20T07:28:20.178Z,92.20
2018-09-20T07:30:48.949Z,92.10
2018-09-20T07:33:18.164Z,91.70
2018-09-20T07:35:47.288Z,91.70
2018-09-20T07:38:18.581Z,91.30
2018-09-20T07:40:49.130Z,91.00
2018-09-20T07:43:18.254Z,91.10
2018-09-20T07:45:47.390Z,91.10
2018-09-20T07:48:16.567Z,90.80
2018-09-20T07:50:46.723Z,90.40
2018-09-20T07:53:17.724Z,90.20
2018-09-20T07:55:47.784Z,90.20
2018-09-20T07:58:18.147Z,90.00
2018-09-20T08:00:47.215Z,89.90
2018-09-20T08:03:16.866Z,88.70
2018-09-20T08:05:47.299Z,87.40
2018-09-20T08:08:16.213Z,87.10
2018-09-20T08:10:45.025Z,85.50
2018-09-20T08:13:14.268Z,85.40
2018-09-20T08:15:43.570Z,85.00
2018-09-20T08:18:13.431Z,85.70
2018-09-20T08:20:44.569Z,84.90
2018-09-20T08:23:18.638Z,85.10
2018-09-20T08:25:49.319Z,85.80
2018-09-20T08:28:24.324Z,85.30
2018-09-20T08:30:54.084Z,84.70
2018-09-20T08:33:23.703Z,84.50
2018-09-20T08:35:52.829Z,84.90
2018-09-20T08:38:22.345Z,84.20
2018-09-20T08:40:51.490Z,83.20
2018-09-20T08:43:21.342Z,82.50
2018-09-20T08:45:50.870Z,82.10
2018-09-20T08:48:20.382Z,81.70
2018-09-20T08:50:50.443Z,80.80
2018-09-20T08:53:19.926Z,79.30
2018-09-20T08:55:50.198Z,79.60
2018-09-20T08:58:19.313Z,79.20
2018-09-20T09:00:49.422Z,78.80
2018-09-20T09:03:20.929Z,79.40
2018-09-20T09:05:51.421Z,80.00
2018-09-20T09:08:21.294Z,78.20
2018-09-20T09:10:52.036Z,77.80
2018-09-20T09:13:21.246Z,77.50
2018-09-20T09:15:50.420Z,77.80
2018-09-20T09:18:19.511Z,77.50
2018-09-20T09:20:49.083Z,76.90
2018-09-20T09:23:18.357Z,76.20
2018-09-20T09:25:47.479Z,74.50
2018-09-20T09:28:16.701Z,74.50
2018-09-20T09:30:51.290Z,74.90
2018-09-20T09:33:20.723Z,74.40
2018-09-20T09:35:51.348Z,73.90
2018-09-20T09:38:20.595Z,72.90
2018-09-20T09:40:49.769Z,73.80
2018-09-20T09:43:19.015Z,72.20
2018-09-20T09:45:48.208Z,72.00
2018-09-20T09:48:17.700Z,72.00
2018-09-20T09:50:46.589Z,69.90
2018-09-20T09:53:16.663Z,68.80
2018-09-20T09:55:45.976Z,68.40
2018-09-20T09:58:16.183Z,69.00
2018-09-20T10:00:46.099Z,68.00
2018-09-20T10:03:16.580Z,67.10
2018-09-20T10:05:45.487Z,66.80
2018-09-20T10:08:14.669Z,67.30
2018-09-20T10:10:46.402Z,66.20
2018-09-20T10:13:16.560Z,66.80
2018-09-20T10:15:45.709Z,65.20
2018-09-20T10:18:15.980Z,64.70
2018-09-20T10:20:46.278Z,65.20
2018-09-20T10:23:16.333Z,64.80
2018-09-20T10:25:45.478Z,65.00
2018-09-20T10:28:14.848Z,65.40
2018-09-20T10:30:47.826Z,66.20
2018-09-20T10:33:17.415Z,66.00
2018-09-20T10:35:46.624Z,65.80
2018-09-20T10:38:16.718Z,64.90
2018-09-20T10:40:46.218Z,65.30
2018-09-20T10:43:19.300Z,65.20
2018-09-20T10:45:50.034Z,64.40
2018-09-20T10:48:20.399Z,64.70
2018-09-20T10:50:49.950Z,65.50
2018-09-20T10:53:19.418Z,64.40
2018-09-20T10:55:49.585Z,64.10
2018-09-20T10:58:19.790Z,63.50
2018-09-20T11:00:49.059Z,63.50
2018-09-20T11:03:19.596Z,62.20
2018-09-20T11:05:49.291Z,62.40
2018-09-20T11:08:18.381Z,62.50
2018-09-20T11:10:48.125Z,61.60
2018-09-20T11:13:19.008Z,60.00
2018-09-20T11:15:48.664Z,59.50
2018-09-20T11:18:18.690Z,60.50
2018-09-20T11:20:49.524Z,60.80
2018-09-20T11:23:20.993Z,60.40
2018-09-20T11:25:53.289Z,60.00
2018-09-20T11:28:23.165Z,60.10
2018-09-20T11:30:53.513Z,60.30
2018-09-20T11:33:23.689Z,59.40
2018-09-20T11:35:53.229Z,59.80
2018-09-20T11:38:27.195Z,59.60
2018-09-20T11:40:57.363Z,59.30
2018-09-20T11:43:26.928Z,59.00
2018-09-20T11:45:56.219Z,59.60
2018-09-20T11:48:25.240Z,59.30
2018-09-20T11:50:54.358Z,58.90
2018-09-20T11:53:29.222Z,59.60
2018-09-20T11:56:00.355Z,59.90
2018-09-20T11:58:30.284Z,60.10
2018-09-20T12:00:59.530Z,60.50
2018-09-20T12:03:28.741Z,60.30
2018-09-20T12:05:57.856Z,60.00
2018-09-20T12:08:27.374Z,59.60
2018-09-20T12:10:57.165Z,59.60
2018-09-20T12:13:28.058Z,58.50
2018-09-20T12:15:57.210Z,58.20
2018-09-20T12:18:26.320Z,57.80
2018-09-20T12:20:56.120Z,58.40
2018-09-20T12:23:27.469Z,58.30
2018-09-20T12:25:59.457Z,58.20
2018-09-20T12:28:29.881Z,58.70
2018-09-20T12:31:04.518Z,58.60
2018-09-20T12:33:33.785Z,58.20
2018-09-20T12:36:03.777Z,57.40
2018-09-20T12:41:10.521Z,57.60
2018-09-20T12:43:45.689Z,57.80
2018-09-20T12:46:17.417Z,57.80
2018-09-20T12:48:49.314Z,57.30
2018-09-20T12:51:28.348Z,58.40
2018-09-20T12:54:02.163Z,57.30
2018-09-20T12:56:33.757Z,56.50
2018-09-20T12:59:10.448Z,56.50
2018-09-20T13:01:40.068Z,56.70
2018-09-20T13:04:11.442Z,56.60
2018-09-20T13:06:45.799Z,56.50
2018-09-20T13:09:16.344Z,57.60
2018-09-20T13:11:54.903Z,56.20
2018-09-20T13:14:25.540Z,56.30
2018-09-20T13:16:55.668Z,55.60
2018-09-20T13:19:29.110Z,55.70
2018-09-20T13:21:58.358Z,56.40
2018-09-20T13:24:27.649Z,56.50
2018-09-20T13:26:56.951Z,55.40
2018-09-20T13:29:26.224Z,56.20
2018-09-20T13:31:56.969Z,55.90
2018-09-20T13:34:27.818Z,55.70
2018-09-20T13:36:57.061Z,55.90
2018-09-20T13:39:26.453Z,56.70
2018-09-20T13:41:58.377Z,56.70
2018-09-20T13:44:29.979Z,56.80
2018-09-20T13:46:58.979Z,56.80
2018-09-20T13:49:29.957Z,56.40
2018-09-20T13:51:59.209Z,56.60
2018-09-20T13:54:29.692Z,57.40
2018-09-20T13:57:00.082Z,56.60
2018-09-20T13:59:29.634Z,55.60
2018-09-20T14:01:58.834Z,55.90
2018-09-20T14:04:28.316Z,55.70
2018-09-20T14:06:57.224Z,57.10
2018-09-20T14:09:27.415Z,55.60
2018-09-20T14:11:56.846Z,55.50
2018-09-20T14:14:27.205Z,55.70
2018-09-20T14:16:57.297Z,55.90
2018-09-20T14:19:31.603Z,55.70
2018-09-20T14:22:03.291Z,54.70
2018-09-20T14:24:32.752Z,54.50
2018-09-20T14:27:03.660Z,55.40
2018-09-20T14:29:35.594Z,54.80
2018-09-20T14:32:11.605Z,55.00
2018-09-20T14:34:42.208Z,55.90
2018-09-20T14:37:13.071Z,55.90
2018-09-20T14:39:42.106Z,55.80
2018-09-20T14:42:13.738Z,55.60
2018-09-20T14:44:44.715Z,54.70
2018-09-20T14:48:12.378Z,53.90
2018-09-20T14:50:44.349Z,53.60
2018-09-20T14:53:14.576Z,54.60
2018-09-20T14:55:45.379Z,54.60
2018-09-20T14:58:15.334Z,54.80
2018-09-20T15:00:45.489Z,54.90
2018-09-20T15:03:14.748Z,54.60
2018-09-20T15:05:43.923Z,54.00
2018-09-20T15:08:16.578Z,54.00
2018-09-20T15:11:03.722Z,54.20
2018-09-20T15:13:33.703Z,54.10
2018-09-20T15:16:14.777Z,53.80
2018-09-20T15:18:50.504Z,53.60
2018-09-20T15:21:22.346Z,54.00
2018-09-20T15:23:52.017Z,54.00
2018-09-20T15:29:19.023Z,53.90
2018-09-20T15:32:10.262Z,54.00
2018-09-20T15:34:45.204Z,54.50
2018-09-20T15:37:21.809Z,54.40
2018-09-20T15:39:54.613Z,54.70
2018-09-20T15:42:27.096Z,55.30
2018-09-20T15:45:12.394Z,54.40
2018-09-20T15:47:49.214Z,54.20
2018-09-20T15:50:22.753Z,54.50
2018-09-20T15:52:53.526Z,54.20
2018-09-20T15:55:23.861Z,54.40
2018-09-20T15:57:53.668Z,53.90
2018-09-20T16:00:26.559Z,54.30
2018-09-20T16:02:58.128Z,54.60
2018-09-20T16:05:27.433Z,55.00
2018-09-20T16:07:58.592Z,55.00
2018-09-20T16:10:30.628Z,54.70
2018-09-20T16:13:03.857Z,54.80
2018-09-20T16:15:33.454Z,54.50
2018-09-20T16:18:02.632Z,54.80
2018-09-20T16:20:31.735Z,54.50
2018-09-20T16:23:01.344Z,55.00
2018-09-20T16:25:32.892Z,55.00
2018-09-20T16:29:13.834Z,55.10
2018-09-20T16:31:55.840Z,55.30
2018-09-20T16:34:56.797Z,55.40
2018-09-20T16:38:24.766Z,55.70
2018-09-20T16:40:55.909Z,55.30
2018-09-20T16:43:26.823Z,55.80
2018-09-20T16:45:57.384Z,55.80
2018-09-20T16:48:27.608Z,55.80
2018-09-20T16:50:57.654Z,56.20
2018-09-20T16:53:27.940Z,56.40
2018-09-20T16:55:58.019Z,56.30
2018-09-20T16:58:27.218Z,56.40
2018-09-20T17:01:02.810Z,57.00
2018-09-20T17:03:32.325Z,57.10
2018-09-20T17:06:01.639Z,57.40
2018-09-20T17:08:32.355Z,57.80
2018-09-20T17:11:02.232Z,57.80
2018-09-20T17:13:32.362Z,57.90
2018-09-20T17:16:02.360Z,58.40
2018-09-20T17:18:32.704Z,58.50
2018-09-20T17:21:03.731Z,58.70
2018-09-20T17:23:32.984Z,59.40
2018-09-20T17:26:04.744Z,59.30
2018-09-20T17:28:36.790Z,59.50
2018-09-20T17:31:08.717Z,59.60
2018-09-20T17:33:38.357Z,59.70
2018-09-20T17:36:09.990Z,60.50
2018-09-20T17:38:41.229Z,60.80
2018-09-20T17:41:20.333Z,61.20
2018-09-20T17:43:53.899Z,61.50
2018-09-20T17:46:29.492Z,62.10
2018-09-20T17:48:59.413Z,62.00
2018-09-20T17:51:33.019Z,63.00
2018-09-20T17:54:03.073Z,64.40
2018-09-20T17:56:38.120Z,63.90
2018-09-20T17:59:07.358Z,64.20
2018-09-20T18:01:38.494Z,64.70
2018-09-20T18:04:07.825Z,65.40
2018-09-20T18:06:39.927Z,66.00
2018-09-20T18:09:10.022Z,66.00
2018-09-20T18:11:45.294Z,66.50
2018-09-20T18:14:16.538Z,67.00
2018-09-20T18:17:02.587Z,67.60
2018-09-20T18:19:38.055Z,68.30
2018-09-20T18:22:09.843Z,68.20
2018-09-20T18:24:40.257Z,68.30
2018-09-20T18:27:16.491Z,68.60
2018-09-20T18:31:02.898Z,68.50
2018-09-20T18:33:37.522Z,69.30
2018-09-20T18:36:07.499Z,69.80
2018-09-20T18:38:37.660Z,70.50
2018-09-20T18:41:07.050Z,70.60
2018-09-20T18:43:39.284Z,70.90
2018-09-20T18:46:10.246Z,70.40
2018-09-20T18:48:48.251Z,70.70
2018-09-20T18:53:54.775Z,71.00
2018-09-20T18:56:25.304Z,72.10
2018-09-20T18:58:56.361Z,72.60
2018-09-20T19:01:28.865Z,72.50
2018-09-20T19:03:58.322Z,72.40
2018-09-20T19:06:30.196Z,72.70
2018-09-20T19:09:01.913Z,74.00
2018-09-20T19:11:34.271Z,73.30
2018-09-20T19:14:06.968Z,73.20
2018-09-20T19:16:44.137Z,74.10
2018-09-20T19:19:15.357Z,74.00
2018-09-20T19:21:45.557Z,74.20
2018-09-20T19:27:01.584Z,74.90
2018-09-20T19:29:32.048Z,75.20
2018-09-20T19:32:01.591Z,75.70
2018-09-20T19:34:34.816Z,75.80
2018-09-20T19:37:06.247Z,75.20
2018-09-20T19:39:36.561Z,76.00
2018-09-20T19:42:06.967Z,77.40
2018-09-20T19:44:39.763Z,77.60
2018-09-20T19:47:10.541Z,77.50
2018-09-20T19:49:41.623Z,78.80
2018-09-20T19:52:16.268Z,77.30
2018-09-20T19:54:51.473Z,78.20
2018-09-20T19:57:22.456Z,79.00
2018-09-20T19:59:52.708Z,79.60
2018-09-20T20:02:26.797Z,80.00
2018-09-20T20:04:58.032Z,80.40
2018-09-20T20:07:29.767Z,80.40
2018-09-20T20:10:00.817Z,78.80
2018-09-20T20:12:35.803Z,79.00
2018-09-20T20:15:07.124Z,78.30
2018-09-20T20:17:37.337Z,78.00
2018-09-20T20:20:13.171Z,77.60
2018-09-20T20:22:45.118Z,77.60
2018-09-20T20:25:20.384Z,77.60
2018-09-20T20:27:51.760Z,78.80
2018-09-20T20:30:20.900Z,78.30
2018-09-20T20:32:51.354Z,78.50
2018-09-20T20:35:23.108Z,79.10
2018-09-20T20:37:52.390Z,78.90
2018-09-20T20:40:22.479Z,78.90
2018-09-20T20:42:52.277Z,78.80
2018-09-20T20:45:21.545Z,78.30
2018-09-20T20:47:55.838Z,78.70
2018-09-20T20:50:25.256Z,78.30
2018-09-20T20:52:54.598Z,79.70
2018-09-20T20:55:26.931Z,79.60
2018-09-20T20:57:57.495Z,80.60
2018-09-20T21:00:26.654Z,80.50
2018-09-20T21:02:56.600Z,79.90
2018-09-20T21:05:27.514Z,80.20
2018-09-20T21:07:57.778Z,79.00
2018-09-20T21:10:27.754Z,79.50
2018-09-20T21:13:01.426Z,79.60
2018-09-20T21:15:35.752Z,80.40
2018-09-20T21:18:07.471Z,80.00
2018-09-20T21:20:37.990Z,80.50
2018-09-20T21:23:08.854Z,80.10
2018-09-20T21:25:40.745Z,80.40
2018-09-20T21:28:09.946Z,80.00
2018-09-20T21:30:41.415Z,80.50
2018-09-20T21:33:12.395Z,79.80
2018-09-20T21:35:42.731Z,79.50
2018-09-20T21:38:12.377Z,80.30
2018-09-20T21:40:46.569Z,80.30
2018-09-20T21:43:15.721Z,80.80
2018-09-20T21:45:45.621Z,80.20
2018-09-20T21:48:15.856Z,80.10
2018-09-20T21:50:47.130Z,79.80
2018-09-20T21:53:16.325Z,80.10
2018-09-20T21:55:47.357Z,79.70
2018-09-20T21:58:17.519Z,79.50
2018-09-20T22:00:47.512Z,79.70
2018-09-20T22:03:17.349Z,79.80
2018-09-20T22:05:46.882Z,80.00
2018-09-20T22:08:16.077Z,80.00
2018-09-20T22:10:47.660Z,79.40
2018-09-20T22:13:16.765Z,80.10
2018-09-20T22:15:46.286Z,79.30
2018-09-20T22:18:17.782Z,78.00
2018-09-20T22:20:48.152Z,77.80
2018-09-20T22:23:17.971Z,77.40
2018-09-20T22:25:48.423Z,77.20
2018-09-20T22:28:20.096Z,77.30
2018-09-20T22:30:50.180Z,76.30
2018-09-20T22:33:19.350Z,76.40
2018-09-20T22:35:54.856Z,75.80
2018-09-20T22:38:24.940Z,75.80
2018-09-20T22:40:54.232Z,76.30
2018-09-20T22:43:35.401Z,76.10
2018-09-20T22:46:05.517Z,75.70
2018-09-20T22:48:34.611Z,76.60
2018-09-20T22:51:04.025Z,75.60
2018-09-20T22:53:34.432Z,75.20
2018-09-20T22:56:03.606Z,75.10
2018-09-20T22:58:32.657Z,75.30
2018-09-20T23:01:02.274Z,75.00
2018-09-20T23:03:31.440Z,75.20
2018-09-20T23:06:00.533Z,75.30
2018-09-20T23:08:30.927Z,75.20
2018-09-20T23:11:00.051Z,75.20
2018-09-20T23:13:32.407Z,75.10
2018-09-20T23:16:01.520Z,75.30
2018-09-20T23:18:30.664Z,75.50
2018-09-20T23:20:59.819Z,75.30
2018-09-20T23:23:28.950Z,74.90
2018-09-20T23:26:03.546Z,75.50
2018-09-20T23:28:33.671Z,75.90
2018-09-20T23:31:02.732Z,75.90
2018-09-20T23:33:34.137Z,76.10
2018-09-20T23:36:03.286Z,75.90
2018-09-20T23:38:32.377Z,76.10
2018-09-20T23:41:04.789Z,76.70
2018-09-20T23:43:33.876Z,76.70
2018-09-20T23:46:02.885Z,77.40
2018-09-20T23:48:45.354Z,77.30
2018-09-20T23:51:14.528Z,76.90
2018-09-20T23:53:43.649Z,76.90
2018-09-20T23:56:13.327Z,77.40
2018-09-20T23:58:46.510Z,77.80
